WetterOnline ( https://www.wetteronline.de )

Wetter aktuell Mannheim

Aktuelles Wetter: Mannheim (100m)

6-stündlich | Neueste Meldungen
Ortszeit Temperatur Wetter
Do, 09.04. 14:00 22.6° C wolkenlos
Do, 09.04. 8:00 9.1° C leicht bewölkt
Do, 09.04. 2:00 9.0° C wolkenlos
Mi, 08.04. 20:00 21.3° C wolkenlos
Mi, 08.04. 14:00 22.2° C wolkenlos
Mi, 08.04. 8:00 9.5° C wolkenlos
Mi, 08.04. 2:00 14.0° C wolkenlos
Di, 07.04. 20:00 20.2° C wolkenlos
Ortszeit Temperatur Wetter
Do, 09.04. 15:00 23.7° C wolkig
Do, 09.04. 14:50 23.7° C wolkig
Do, 09.04. 14:40 23.6° C leicht bewölkt
Do, 09.04. 14:30 23.1° C fast wolkenlos
Do, 09.04. 14:20 23.1° C wolkenlos
Do, 09.04. 14:10 22.9° C wolkenlos
Do, 09.04. 14:00 22.6° C wolkenlos
Do, 09.04. 13:30 21.7° C wolkenlos
Do, 09.04. 13:00 20.6° C wolkig
Do, 09.04. 12:30 19.9° C bewölkt
Do, 09.04. 12:00 18.9° C bewölkt
Ortszeit Relative Feuchte Sichtweite
Do, 09.04. 14:00 31% 14 km
Do, 09.04. 8:00 73% 14 km
Do, 09.04. 2:00 70% 18 km
Mi, 08.04. 20:00 29% 30 km
Mi, 08.04. 14:00 29% 14 km
Mi, 08.04. 8:00 78% 10 km
Mi, 08.04. 2:00 54% 35 km
Di, 07.04. 20:00 32% 55 km
Ortszeit Relative Feuchte Sichtweite
Do, 09.04. 15:00 25% 17 km
Do, 09.04. 14:50 25% -
Do, 09.04. 14:40 28% -
Do, 09.04. 14:30 27% 15 km
Do, 09.04. 14:20 27% -
Do, 09.04. 14:10 27% -
Do, 09.04. 14:00 31% 14 km
Do, 09.04. 13:30 31% 13 km
Do, 09.04. 13:00 33% 15 km
Do, 09.04. 12:30 36% 17 km
Do, 09.04. 12:00 43% 18 km
Ortszeit Niederschlagsmenge Niederschlagsart
Do, 09.04. 14:00 0.0 l/m2 in 6 Std. -
Do, 09.04. 8:00 0.0 l/m2 in 12 Std. -
Do, 09.04. 2:00 0.0 l/m2 in 6 Std. -
Mi, 08.04. 20:00 0.0 l/m2 in 12 Std. -
Mi, 08.04. 14:00 0.0 l/m2 in 6 Std. -
Mi, 08.04. 8:00 0.0 l/m2 in 12 Std. -
Mi, 08.04. 2:00 0.0 l/m2 in 6 Std. -
Di, 07.04. 20:00 0.0 l/m2 in 12 Std. -
Ortszeit Niederschlagsmenge Niederschlagsart
Do, 09.04. 15:00 0.0 l/m2 in 1 Std. -
Do, 09.04. 14:50 keine Meldung -
Do, 09.04. 14:40 keine Meldung -
Do, 09.04. 14:30 0.0 l/m2 in 1 Std. -
Do, 09.04. 14:20 keine Meldung -
Do, 09.04. 14:10 keine Meldung -
Do, 09.04. 14:00 0.0 l/m2 in 1 Std. -
Do, 09.04. 13:30 0.0 l/m2 in 1 Std. -
Do, 09.04. 13:00 0.0 l/m2 in 1 Std. -
Do, 09.04. 12:30 0.0 l/m2 in 1 Std. -
Do, 09.04. 12:00 0.0 l/m2 in 1 Std. -
Ortszeit Stärke Spitze Richtung
km/h Bft. km/h Grad Sektor
Do, 09.04. 14:00 6 1 19 150° SO
Do, 09.04. 8:00 7 2 18 160° S
Do, 09.04. 2:00 4 1 14 50° NO
Mi, 08.04. 20:00 4 1 18 330° NW
Mi, 08.04. 14:00 4 1 18 160° S
Mi, 08.04. 8:00 4 1 14 330° NW
Mi, 08.04. 2:00 11 2 18 20° N
Di, 07.04. 20:00 11 2 32 70° O
Ortszeit Stärke Spitze Richtung
km/h Bft. km/h Grad Sektor
Do, 09.04. 15:00 11 2 18 50° NO
Do, 09.04. 14:50 11 2 - 50° NO
Do, 09.04. 14:40 4 1 - 110° O
Do, 09.04. 14:30 4 1 11 110° O
Do, 09.04. 14:20 4 1 - 110° O
Do, 09.04. 14:10 4 1 - 90° O
Do, 09.04. 14:00 6 1 11 150° SO
Do, 09.04. 13:30 6 1 11 210° SW
Do, 09.04. 13:00 4 1 14 280° W
Do, 09.04. 12:30 6 1 13 200° S
Do, 09.04. 12:00 6 1 15 160° S
Ortszeit Untergrenze Bedeckung Gattung
total tief tief mittel hoch
Do, 09.04. 14:00 - 0/8 0/8 - - -
Do, 09.04. 8:00 2700 m 4/8 4/8 - - -
Do, 09.04. 2:00 - 0/8 0/8 - - -
Mi, 08.04. 20:00 - 0/8 0/8 - - -
Mi, 08.04. 14:00 - 0/8 0/8 - - -
Mi, 08.04. 8:00 - 0/8 0/8 - - -
Mi, 08.04. 2:00 - 0/8 0/8 - - -
Di, 07.04. 20:00 - 0/8 0/8 - - -
Ortszeit Bedeckungsgrad in Achtel und Wolkenuntergrenze
Do, 09.04. 15:00 6(2400m)
Do, 09.04. 14:50 6(2400m)
Do, 09.04. 14:40 4(2400m)
Do, 09.04. 14:30 2(2400m)
Do, 09.04. 14:20 keine Wolken
Do, 09.04. 14:10 keine Wolken
Do, 09.04. 14:00 keine Wolken
Do, 09.04. 13:30 keine Wolken
Do, 09.04. 13:00 5(3000m)
Do, 09.04. 12:30 7(3000m)
Do, 09.04. 12:00 7(3000m)
Ortszeit Luftdruck NN (hPa) Tendenz (hPa in 3 Std.)
Do, 09.04. 14:00 1023 - 0,9
Do, 09.04. 8:00 1024 + 0,5
Do, 09.04. 2:00 1023 - 0,1
Mi, 08.04. 20:00 1022 - 0,5
Mi, 08.04. 14:00 1024 - 1,6
Mi, 08.04. 8:00 1027 0,0
Mi, 08.04. 2:00 1027 + 0,1
Di, 07.04. 20:00 1027 - 0,4
Ortszeit Luftdruck NN (hPa) Tendenz (hPa in 3 Std.)
Do, 09.04. 15:00 1023 - 1,5
Do, 09.04. 14:50 1023 keine Meldung
Do, 09.04. 14:40 1023 keine Meldung
Do, 09.04. 14:30 1023 - 1,1
Do, 09.04. 14:20 1023 keine Meldung
Do, 09.04. 14:10 1023 keine Meldung
Do, 09.04. 14:00 1023 - 0,9
Do, 09.04. 13:30 1024 - 0,6
Do, 09.04. 13:00 1024 - 0,2
Do, 09.04. 12:30 1024 + 0,1
Do, 09.04. 12:00 1024 + 0,6
Ortszeit Schneehöhe (cm)
Do, 09.04. 14:00 0
Do, 09.04. 8:00 0
Do, 09.04. 2:00 0
Mi, 08.04. 20:00 0
Mi, 08.04. 14:00 0
Mi, 08.04. 8:00 0
Mi, 08.04. 2:00 0
Di, 07.04. 20:00 0
Ortszeit Schneehöhe (cm)
Do, 09.04. 15:00 0
Do, 09.04. 14:50 0
Do, 09.04. 14:40 0
Do, 09.04. 14:30 0
Do, 09.04. 14:20 0
Do, 09.04. 14:10 0
Do, 09.04. 14:00 0
Do, 09.04. 13:30 0
Do, 09.04. 13:00 0
Do, 09.04. 12:30 0
Do, 09.04. 12:00 0
Link zu dieser Seite / Seite empfehlen

Das Wetter in ...